Time;durP1;ratioP1;P1;durP2;ratioP2;P2;SDS_P1;SDS_P2;PMS_P1;PMS_P2;Temp;Humidity;BMP_temperature;BMP_pressure;BME280_temperature;BME280_humidity;BME280_pressure;Samples;Min_cycle;Max_cycle;Signal;HPM_P1;HPM_P2
2021/11/12 00:14:07;;;;;;;81.22;21.10;;;1.80;99.90;;;;;;5033217;28;20391;-49
2021/11/12 00:16:35;;;;;;;71.68;19.92;;;1.80;99.90;;;;;;5032539;28;20018;-48
2021/11/12 00:19:00;;;;;;;45.28;17.58;;;1.90;99.90;;;;;;5032937;28;20079;-48
2021/11/12 00:21:26;;;;;;;64.82;19.17;;;1.80;99.90;;;;;;5031559;28;20120;-47
2021/11/12 00:23:52;;;;;;;61.25;17.35;;;1.90;99.90;;;;;;5032891;28;20029;-51
2021/11/12 00:26:19;;;;;;;50.13;18.00;;;2.00;99.90;;;;;;5031227;28;20541;-49
2021/11/12 00:28:54;;;;;;;118.32;19.17;;;2.00;99.90;;;;;;5032850;28;20013;-47
2021/11/12 00:31:28;;;;;;;35.83;18.20;;;2.00;99.90;;;;;;5032907;28;20570;-50
2021/11/12 00:36:40;;;;;;;130.25;21.58;;;2.00;99.90;;;;;;5032913;28;20061;-49
2021/11/12 00:39:12;;;;;;;52.55;18.65;;;2.10;99.90;;;;;;5031353;28;20084;-53
2021/11/12 00:49:13;;;;;;;30.02;17.80;;;2.20;99.90;;;;;;5034083;28;20398;-48
2021/11/12 00:51:47;;;;;;;37.25;16.45;;;2.30;99.90;;;;;;5032809;28;20106;-53
2021/11/12 00:54:13;;;;;;;31.33;17.30;;;2.40;99.90;;;;;;5032956;28;20463;-51
2021/11/12 00:56:39;;;;;;;40.38;18.20;;;2.40;99.90;;;;;;5032388;28;20025;-49
2021/11/12 00:59:07;;;;;;;46.97;16.45;;;2.50;99.90;;;;;;5032651;28;20091;-51
2021/11/12 01:01:36;;;;;;;24.80;15.13;;;2.50;99.90;;;;;;5032522;28;20096;-52
2021/11/12 01:04:06;;;;;;;47.40;16.13;;;2.50;99.90;;;;;;5032717;28;20017;-53
2021/11/12 01:06:32;;;;;;;58.40;16.35;;;2.50;99.90;;;;;;5032150;28;20056;-49
2021/11/12 01:08:57;;;;;;;45.83;17.02;;;2.50;99.90;;;;;;5030867;28;20059;-50
2021/11/12 01:11:26;;;;;;;60.72;16.67;;;2.50;99.90;;;;;;5031059;28;20022;-54
2021/11/12 01:13:53;;;;;;;29.02;16.85;;;2.60;99.90;;;;;;5032570;28;20013;-47
2021/11/12 01:16:19;;;;;;;66.30;18.75;;;2.60;99.90;;;;;;5032148;28;20096;-47
2021/11/12 01:18:45;;;;;;;61.95;17.27;;;2.60;99.90;;;;;;5030916;28;20112;-47
2021/11/12 01:21:14;;;;;;;52.72;15.13;;;2.50;99.90;;;;;;5032178;28;20061;-50
2021/11/12 01:23:42;;;;;;;33.50;15.18;;;2.30;99.90;;;;;;5031853;28;20033;-52
2021/11/12 01:26:09;;;;;;;57.50;16.65;;;2.20;99.90;;;;;;5031590;28;20017;-50
2021/11/12 01:28:35;;;;;;;39.53;16.23;;;2.10;99.90;;;;;;5029747;28;20017;-49
2021/11/12 01:31:01;;;;;;;51.30;15.85;;;2.20;99.90;;;;;;5031910;28;20093;-48
2021/11/12 01:33:27;;;;;;;65.68;16.35;;;2.20;99.90;;;;;;5030514;28;20128;-49
2021/11/12 01:35:55;;;;;;;78.28;16.95;;;2.30;99.90;;;;;;5031815;28;20010;-50
2021/11/12 01:38:22;;;;;;;71.40;17.45;;;2.30;99.90;;;;;;5030746;28;20028;-48
2021/11/12 01:40:49;;;;;;;48.45;16.20;;;2.20;99.90;;;;;;5030614;28;20226;-48
2021/11/12 01:43:18;;;;;;;95.75;17.83;;;2.30;99.90;;;;;;5030430;28;20501;-49
2021/11/12 01:59:33;;;;;;;50.42;15.65;;;2.10;99.90;;;;;;4989644;28;20033;-50
2021/11/12 02:02:06;;;;;;;52.25;16.50;;;2.10;99.90;;;;;;5017379;28;20475;-47
2021/11/12 02:04:32;;;;;;;58.13;16.30;;;2.10;99.90;;;;;;5031363;28;20056;-52
2021/11/12 02:06:59;;;;;;;44.17;14.77;;;2.00;99.90;;;;;;5030866;28;20071;-49
2021/11/12 02:09:26;;;;;;;24.00;14.55;;;2.00;99.90;;;;;;5030998;28;20405;-48
2021/11/12 02:11:56;;;;;;;26.33;14.15;;;2.00;99.90;;;;;;5031123;28;20022;-49
2021/11/12 02:14:23;;;;;;;28.67;13.88;;;2.00;99.90;;;;;;5031081;28;20013;-48
2021/11/12 02:17:05;;;;;;;36.53;13.68;;;2.00;99.90;;;;;;5029536;28;20029;-51
2021/11/12 02:19:33;;;;;;;29.70;13.48;;;2.00;99.90;;;;;;5030969;28;20040;-51
2021/11/12 02:22:12;;;;;;;27.92;14.57;;;2.10;99.90;;;;;;5030861;28;20027;-50
2021/11/12 02:24:47;;;;;;;27.50;12.65;;;2.10;99.90;;;;;;5030985;28;20056;-52
2021/11/12 02:27:14;;;;;;;23.15;13.18;;;2.10;99.90;;;;;;5030504;28;20096;-51
2021/11/12 02:29:47;;;;;;;31.05;14.82;;;2.10;99.90;;;;;;5030813;28;20036;-50
2021/11/12 02:32:25;;;;;;;35.45;14.27;;;2.10;99.90;;;;;;5030825;28;20028;-47
2021/11/12 02:34:54;;;;;;;47.75;13.15;;;2.10;99.90;;;;;;5030792;28;20041;-50
2021/11/12 02:37:21;;;;;;;43.67;13.90;;;2.10;99.90;;;;;;5030582;28;20018;-48
2021/11/12 02:39:49;;;;;;;29.50;14.30;;;2.10;99.90;;;;;;5030431;28;20025;-50
2021/11/12 02:42:15;;;;;;;29.55;13.75;;;2.10;99.90;;;;;;5030922;28;20121;-50
2021/11/12 02:44:42;;;;;;;24.15;13.73;;;2.10;99.90;;;;;;5030772;28;20104;-47
2021/11/12 02:47:10;;;;;;;22.77;13.25;;;2.10;99.90;;;;;;5030005;28;20022;-51
2021/11/12 02:49:36;;;;;;;21.17;12.20;;;2.30;99.90;;;;;;5029391;28;20022;-51
2021/11/12 02:52:03;;;;;;;28.70;13.30;;;2.30;99.90;;;;;;5029388;28;20382;-50
2021/11/12 02:54:30;;;;;;;22.90;13.43;;;2.30;99.90;;;;;;5030541;28;20017;-51
2021/11/12 02:56:58;;;;;;;20.83;13.50;;;2.40;99.90;;;;;;5030117;28;20045;-50
2021/11/12 02:59:25;;;;;;;56.92;14.52;;;2.50;99.90;;;;;;5030408;28;20075;-48
2021/11/12 03:01:50;;;;;;;29.88;13.50;;;2.60;99.90;;;;;;5030556;28;20014;-52
2021/11/12 03:04:18;;;;;;;31.10;13.77;;;2.70;99.90;;;;;;5030648;28;20082;-49
2021/11/12 03:06:44;;;;;;;33.78;13.02;;;2.70;99.90;;;;;;5030243;28;20018;-49
2021/11/12 03:09:11;;;;;;;34.88;12.48;;;2.60;99.90;;;;;;5030254;28;20021;-47
2021/11/12 03:11:37;;;;;;;23.13;13.68;;;2.60;99.90;;;;;;5030437;28;20040;-51
2021/11/12 03:14:05;;;;;;;24.02;12.90;;;2.60;99.90;;;;;;5030563;28;20025;-47
2021/11/12 03:16:33;;;;;;;31.50;14.10;;;2.50;99.90;;;;;;5030240;28;20028;-49
2021/11/12 03:19:03;;;;;;;28.92;12.50;;;2.60;99.90;;;;;;5030326;28;20033;-48
2021/11/12 03:21:29;;;;;;;28.65;14.10;;;2.80;99.90;;;;;;5028976;28;20048;-48
2021/11/12 03:24:09;;;;;;;27.85;12.95;;;2.70;99.90;;;;;;5030329;28;20038;-49
2021/11/12 03:29:26;;;;;;;34.13;13.65;;;2.70;99.90;;;;;;5030118;28;20469;-48
2021/11/12 03:59:44;;;;;;;26.60;12.45;;;2.60;99.90;;;;;;5034006;28;20075;-49
2021/11/12 04:02:09;;;;;;;28.90;12.65;;;2.90;99.90;;;;;;5033615;28;20032;-49
2021/11/12 04:07:25;;;;;;;30.30;12.07;;;2.80;99.90;;;;;;5033651;28;20022;-47
2021/11/12 04:17:19;;;;;;;24.10;11.55;;;2.80;99.90;;;;;;5033175;28;20032;-50
2021/11/12 04:18:26;;;;;;;20.57;11.90;;;2.80;99.90;;;;;;5032924;28;20033;-51
2021/11/12 04:21:11;;;;;;;40.53;12.75;;;2.80;99.90;;;;;;5033095;28;20371;-47
2021/11/12 05:10:21;;;;;;;31.30;13.68;;;2.90;99.90;;;;;;5032803;28;20036;-52
2021/11/12 05:34:54;;;;;;;21.33;12.77;;;3.10;99.90;;;;;;5032005;28;20032;-50
2021/11/12 05:56:07;;;;;;;27.20;12.48;;;3.20;99.90;;;;;;5031552;28;20028;-48
2021/11/12 05:58:33;;;;;;;24.88;12.98;;;3.20;99.90;;;;;;5029485;28;20044;-51
2021/11/12 06:00:59;;;;;;;21.15;12.43;;;3.20;99.90;;;;;;5031278;28;20477;-49
2021/11/12 06:03:24;;;;;;;27.10;12.75;;;3.20;99.90;;;;;;5031392;28;20025;-46
2021/11/12 06:05:50;;;;;;;22.50;13.43;;;3.20;99.90;;;;;;5031606;28;20026;-51
2021/11/12 06:08:16;;;;;;;21.55;12.70;;;3.20;99.90;;;;;;5030931;28;20429;-48
2021/11/12 06:10:42;;;;;;;21.60;12.13;;;3.10;99.90;;;;;;5031003;28;20071;-48
2021/11/12 06:13:08;;;;;;;41.97;13.68;;;3.20;99.90;;;;;;5030685;28;20044;-48
2021/11/12 06:15:34;;;;;;;32.30;14.60;;;3.20;99.90;;;;;;5029672;28;20053;-49
2021/11/12 06:18:00;;;;;;;26.48;13.88;;;3.20;99.90;;;;;;5030890;28;20029;-47
2021/11/12 06:20:26;;;;;;;25.75;13.63;;;3.10;99.90;;;;;;5031151;28;20410;-48
2021/11/12 06:22:52;;;;;;;28.00;13.88;;;3.00;99.90;;;;;;5030949;28;20033;-51
2021/11/12 06:25:17;;;;;;;31.10;13.88;;;3.00;99.90;;;;;;5030993;28;20498;-50
2021/11/12 06:27:43;;;;;;;39.90;14.25;;;2.90;99.90;;;;;;5030458;28;20018;-48
2021/11/12 06:30:10;;;;;;;43.83;14.05;;;2.90;99.90;;;;;;5030939;28;20052;-50
2021/11/12 06:32:36;;;;;;;37.90;14.15;;;3.00;99.90;;;;;;5030736;28;20017;-52
2021/11/12 06:35:02;;;;;;;48.22;16.08;;;3.00;99.90;;;;;;5030678;28;20024;-50
2021/11/12 06:37:28;;;;;;;34.55;15.80;;;2.90;99.90;;;;;;5029113;28;20148;-49
2021/11/12 06:39:53;;;;;;;28.75;14.15;;;2.80;99.90;;;;;;5030905;28;20022;-51
2021/11/12 06:42:20;;;;;;;36.28;15.02;;;2.70;99.90;;;;;;5031016;28;20025;-48
2021/11/12 06:52:29;;;;;;;61.13;14.10;;;2.70;99.90;;;;;;5032174;28;20025;-48
2021/11/12 06:54:56;;;;;;;27.83;13.40;;;2.80;99.90;;;;;;5031218;28;20026;-52
2021/11/12 06:57:22;;;;;;;32.15;13.13;;;2.90;99.90;;;;;;5030229;28;20500;-48
2021/11/12 06:59:50;;;;;;;48.55;13.43;;;2.90;99.90;;;;;;5030034;28;20075;-49
2021/11/12 07:02:18;;;;;;;37.00;13.98;;;2.80;99.90;;;;;;5031612;28;20041;-54
2021/11/12 07:04:43;;;;;;;28.73;12.30;;;2.70;99.90;;;;;;5030447;28;20027;-49
2021/11/12 07:07:09;;;;;;;41.95;12.85;;;2.60;99.90;;;;;;5029990;28;20108;-49
2021/11/12 07:09:37;;;;;;;37.15;13.32;;;2.60;99.90;;;;;;5030240;28;20036;-51
2021/11/12 07:12:03;;;;;;;54.63;13.25;;;2.50;99.90;;;;;;5030507;28;20033;-48
2021/11/12 07:14:29;;;;;;;38.05;12.23;;;2.50;99.90;;;;;;5030606;28;20069;-51
2021/11/12 07:16:54;;;;;;;40.00;12.02;;;2.50;99.90;;;;;;5028636;28;20443;-49
2021/11/12 07:19:20;;;;;;;30.00;13.85;;;2.40;99.90;;;;;;5029043;28;20418;-51
2021/11/12 07:21:45;;;;;;;28.63;13.38;;;2.50;99.90;;;;;;5028968;28;20022;-49
2021/11/12 07:24:11;;;;;;;23.55;13.13;;;2.70;99.90;;;;;;5028931;28;20124;-50
2021/11/12 07:26:37;;;;;;;22.15;12.45;;;2.70;99.90;;;;;;5031710;28;20057;-47
2021/11/12 07:29:03;;;;;;;28.05;12.57;;;2.80;99.90;;;;;;5032819;28;20026;-51
2021/11/12 07:31:29;;;;;;;38.38;13.73;;;3.00;99.90;;;;;;5034004;28;20021;-52
2021/11/12 07:33:59;;;;;;;25.67;13.55;;;3.00;99.90;;;;;;5032791;28;20029;-48
2021/11/12 07:36:34;;;;;;;26.92;13.00;;;3.00;99.90;;;;;;5032535;28;20028;-49
2021/11/12 07:39:01;;;;;;;21.15;12.77;;;3.10;99.90;;;;;;5032677;28;20483;-49
2021/11/12 07:41:53;;;;;;;31.88;13.27;;;3.00;99.90;;;;;;5032581;28;20034;-48
2021/11/12 07:44:22;;;;;;;27.98;12.10;;;3.00;99.90;;;;;;5033903;28;20025;-48
2021/11/12 07:49:32;;;;;;;23.50;13.60;;;3.00;99.90;;;;;;5034050;28;20051;-51
2021/11/12 07:51:58;;;;;;;21.65;12.23;;;3.00;99.90;;;;;;5032440;28;20022;-48
2021/11/12 07:54:23;;;;;;;25.17;13.73;;;3.00;99.90;;;;;;5032572;28;20080;-51
2021/11/12 07:56:50;;;;;;;33.53;13.80;;;2.90;99.90;;;;;;5032310;28;20021;-47
2021/11/12 07:59:15;;;;;;;27.02;13.88;;;2.90;99.90;;;;;;5032673;28;20345;-51
2021/11/12 08:01:41;;;;;;;28.58;11.48;;;2.90;99.90;;;;;;5032631;28;20033;-47
2021/11/12 08:04:09;;;;;;;28.48;12.15;;;2.90;99.90;;;;;;5032584;28;20029;-48
2021/11/12 08:06:34;;;;;;;20.90;11.98;;;2.90;99.90;;;;;;5032015;28;20505;-46
2021/11/12 08:09:04;;;;;;;24.55;11.00;;;2.90;99.90;;;;;;5021064;28;20026;-48
2021/11/12 08:11:41;;;;;;;27.60;11.30;;;2.90;99.90;;;;;;5017132;28;20022;-46
2021/11/12 08:19:40;;;;;;;21.75;12.13;;;2.90;99.90;;;;;;5018677;28;20137;-54
2021/11/12 08:22:10;;;;;;;38.67;13.20;;;2.80;99.90;;;;;;5030430;28;20104;-52
2021/11/12 08:29:50;;;;;;;41.08;14.57;;;2.70;99.90;;;;;;5032669;28;20025;-48
2021/11/12 08:37:43;;;;;;;40.35;16.17;;;2.60;99.90;;;;;;5032362;28;20036;-54
2021/11/12 08:40:26;;;;;;;50.92;14.45;;;2.40;99.90;;;;;;5031335;28;20087;-54
2021/11/12 08:42:59;;;;;;;43.85;15.35;;;2.40;99.90;;;;;;5031333;28;20048;-53
2021/11/12 08:45:29;;;;;;;46.08;14.82;;;2.30;99.90;;;;;;5031342;28;20056;-50
2021/11/12 08:48:00;;;;;;;53.60;16.10;;;2.30;99.90;;;;;;5030389;28;20033;-54
2021/11/12 08:50:26;;;;;;;35.58;15.23;;;2.30;99.90;;;;;;5031178;28;20407;-56
2021/11/12 08:52:54;;;;;;;27.98;16.77;;;2.30;99.90;;;;;;5031164;28;20083;-53
2021/11/12 08:55:28;;;;;;;31.35;14.38;;;2.30;99.90;;;;;;5031041;28;20076;-54
2021/11/12 08:57:54;;;;;;;53.75;16.83;;;2.50;99.90;;;;;;5030822;28;20034;-55
2021/11/12 09:00:20;;;;;;;27.35;16.15;;;2.50;99.90;;;;;;5031170;28;20029;-53
2021/11/12 09:02:48;;;;;;;29.83;15.07;;;2.50;99.90;;;;;;5031162;28;20029;-56
2021/11/12 09:05:17;;;;;;;37.60;14.73;;;2.50;99.90;;;;;;5030973;28;20022;-54
2021/11/12 09:07:50;;;;;;;61.60;14.82;;;2.50;99.90;;;;;;5030464;28;20033;-54
2021/11/12 09:10:18;;;;;;;22.63;12.95;;;2.60;99.90;;;;;;5030868;28;20029;-57
2021/11/12 09:12:46;;;;;;;41.67;16.45;;;2.70;99.90;;;;;;5030647;28;20386;-50
2021/11/12 09:15:23;;;;;;;56.03;16.23;;;2.60;99.90;;;;;;5030639;28;20061;-51
2021/11/12 09:17:49;;;;;;;24.23;13.85;;;2.60;99.90;;;;;;5030124;28;20382;-54
2021/11/12 09:20:15;;;;;;;48.40;12.95;;;2.60;99.90;;;;;;5030627;28;20108;-54
2021/11/12 09:22:42;;;;;;;23.80;12.23;;;2.50;99.90;;;;;;5030108;28;20102;-52
2021/11/12 09:25:08;;;;;;;32.17;13.93;;;2.50;99.90;;;;;;5024599;28;20051;-54
2021/11/12 09:27:34;;;;;;;37.85;13.45;;;2.60;99.90;;;;;;5012619;28;20061;-57
2021/11/12 09:30:00;;;;;;;25.75;14.15;;;2.70;99.90;;;;;;5010423;28;20333;-52
2021/11/12 09:32:25;;;;;;;22.58;13.48;;;2.90;99.90;;;;;;5008796;28;20030;-53
2021/11/12 09:34:51;;;;;;;31.65;15.13;;;2.80;99.90;;;;;;5009993;28;20164;-55
2021/11/12 09:37:22;;;;;;;23.75;13.77;;;2.80;99.90;;;;;;5008809;28;20022;-52
2021/11/12 09:39:54;;;;;;;29.20;13.75;;;2.80;99.90;;;;;;5010413;28;20026;-54
2021/11/12 09:42:38;;;;;;;33.95;13.55;;;2.70;99.90;;;;;;5010424;28;20065;-55
2021/11/12 09:45:06;;;;;;;26.10;13.70;;;2.80;99.90;;;;;;5010430;28;20053;-52
2021/11/12 09:47:32;;;;;;;21.67;11.77;;;2.70;99.90;;;;;;5009277;28;20124;-54
2021/11/12 09:50:03;;;;;;;30.20;13.80;;;2.80;99.90;;;;;;5010159;28;20391;-58
2021/11/12 09:52:30;;;;;;;29.27;14.93;;;2.90;99.90;;;;;;5012353;28;20064;-58
2021/11/12 09:54:56;;;;;;;29.80;13.40;;;2.90;99.90;;;;;;5029370;28;20028;-56
2021/11/12 09:57:22;;;;;;;24.35;11.75;;;2.90;99.90;;;;;;5023260;28;20025;-57
2021/11/12 09:59:50;;;;;;;25.10;13.07;;;2.90;99.90;;;;;;5016362;28;20129;-55
2021/11/12 10:02:17;;;;;;;26.33;13.52;;;2.80;99.90;;;;;;5027036;28;20422;-59
2021/11/12 10:04:44;;;;;;;38.95;14.15;;;2.80;99.90;;;;;;5027514;28;20036;-63
2021/11/12 10:07:12;;;;;;;38.60;14.43;;;2.90;99.90;;;;;;5027277;28;20053;-53
2021/11/12 10:09:38;;;;;;;31.25;13.82;;;2.90;99.90;;;;;;5028491;28;20025;-58
2021/11/12 10:12:07;;;;;;;28.20;14.50;;;3.00;99.90;;;;;;5029120;28;20379;-50
2021/11/12 10:14:40;;;;;;;27.80;15.40;;;2.90;99.90;;;;;;5028473;28;20025;-52
2021/11/12 10:17:07;;;;;;;26.90;13.63;;;2.90;99.90;;;;;;5027320;28;20034;-50
2021/11/12 10:19:45;;;;;;;25.63;14.07;;;2.80;99.90;;;;;;5028426;28;20025;-49
2021/11/12 10:22:12;;;;;;;23.85;13.23;;;2.90;99.90;;;;;;5026756;28;20033;-49
2021/11/12 10:24:43;;;;;;;42.17;14.65;;;2.90;99.90;;;;;;5028233;28;20033;-50
2021/11/12 10:27:15;;;;;;;28.17;15.40;;;3.00;99.90;;;;;;5028714;28;20028;-48
2021/11/12 10:29:59;;;;;;;28.30;14.70;;;3.00;99.90;;;;;;5028178;28;20029;-50
2021/11/12 10:32:28;;;;;;;24.73;15.50;;;3.10;99.90;;;;;;5028148;28;20025;-51
2021/11/12 10:34:58;;;;;;;32.10;15.70;;;3.10;99.90;;;;;;5028206;28;20067;-53
2021/11/12 10:37:26;;;;;;;27.60;13.52;;;3.20;99.90;;;;;;5030074;28;20095;-49
2021/11/12 10:40:02;;;;;;;25.25;14.02;;;3.30;99.90;;;;;;5022742;28;20332;-48
2021/11/12 10:42:29;;;;;;;;;;;3.30;99.90;;;;;;5008634;28;20041;-50
2021/11/12 10:45:23;;;;;;;23.83;13.45;;;3.20;99.90;;;;;;5008876;28;19906;-45
2021/11/12 10:47:54;;;;;;;26.10;15.25;;;3.20;99.90;;;;;;5005092;28;20061;-46
2021/11/12 10:50:22;;;;;;;25.40;13.65;;;3.20;99.90;;;;;;5008508;28;20025;-46
2021/11/12 10:52:49;;;;;;;26.65;14.40;;;3.20;99.90;;;;;;5019757;28;20125;-57
2021/11/12 10:55:23;;;;;;;25.85;16.00;;;3.30;99.90;;;;;;5027998;28;20029;-51
2021/11/12 10:57:50;;;;;;;34.08;17.23;;;3.20;99.90;;;;;;5027725;28;20440;-56
2021/11/12 11:00:29;;;;;;;30.27;16.00;;;3.10;99.90;;;;;;5030944;28;20430;-51
2021/11/12 11:02:57;;;;;;;28.30;16.70;;;3.20;99.90;;;;;;5032216;28;20026;-53
2021/11/12 11:05:40;;;;;;;32.17;17.33;;;3.20;99.90;;;;;;5032031;28;20030;-55
2021/11/12 11:08:20;;;;;;;52.88;18.15;;;3.40;99.90;;;;;;5031660;28;20036;-51
2021/11/12 11:10:47;;;;;;;32.60;14.77;;;3.30;99.90;;;;;;5031644;28;20029;-48
2021/11/12 11:13:16;;;;;;;32.17;16.45;;;3.30;99.90;;;;;;5025226;28;20088;-48
2021/11/12 11:15:51;;;;;;;36.17;15.68;;;3.20;99.90;;;;;;5012158;28;20026;-47
2021/11/12 11:18:30;;;;;;;32.17;15.90;;;3.10;99.90;;;;;;5030759;28;20030;-45
2021/11/12 11:23:49;;;;;;;34.47;17.23;;;3.00;99.90;;;;;;5032666;28;20541;-52
2021/11/12 11:26:21;;;;;;;28.88;15.18;;;2.90;99.90;;;;;;5031569;28;20030;-45
2021/11/12 11:28:49;;;;;;;37.28;17.67;;;3.00;99.90;;;;;;5031726;28;20036;-50
2021/11/12 11:31:16;;;;;;;37.28;19.13;;;3.00;99.90;;;;;;5031658;28;20082;-52
2021/11/12 11:33:45;;;;;;;49.13;17.92;;;3.00;99.90;;;;;;5030758;28;20028;-48
2021/11/12 11:36:17;;;;;;;45.72;19.02;;;3.00;99.90;;;;;;5031535;28;20437;-54
2021/11/12 11:38:43;;;;;;;44.85;18.27;;;3.10;99.90;;;;;;5030589;28;20124;-44
2021/11/12 11:41:11;;;;;;;40.70;17.83;;;3.00;99.90;;;;;;5030439;28;20471;-50
2021/11/12 11:43:37;;;;;;;39.72;20.70;;;3.10;99.90;;;;;;5031344;28;20102;-48
2021/11/12 11:46:06;;;;;;;45.40;20.50;;;3.00;99.90;;;;;;5030933;28;20025;-51
2021/11/12 11:48:37;;;;;;;45.63;21.48;;;3.10;99.90;;;;;;5014047;28;20537;-48
2021/11/12 11:51:04;;;;;;;38.03;20.88;;;3.10;99.90;;;;;;5011234;28;20030;-58
2021/11/12 11:53:32;;;;;;;42.25;21.33;;;3.30;99.90;;;;;;5028282;28;20501;-48
2021/11/12 11:56:14;;;;;;;46.10;21.40;;;3.30;99.90;;;;;;5031143;28;20036;-50
2021/11/12 11:58:42;;;;;;;41.25;21.02;;;3.40;99.90;;;;;;5030865;28;20021;-57
2021/11/12 12:01:30;;;;;;;47.70;23.60;;;3.30;99.90;;;;;;5030861;28;20509;-50
2021/11/12 12:04:08;;;;;;;46.83;21.77;;;3.30;99.90;;;;;;5030772;28;20441;-53
2021/11/12 12:06:34;;;;;;;50.88;23.80;;;3.30;99.90;;;;;;5030593;28;20505;-56
2021/11/12 12:09:06;;;;;;;52.47;24.58;;;3.30;99.90;;;;;;5030840;28;20116;-56
2021/11/12 12:11:40;;;;;;;41.28;21.90;;;3.30;99.90;;;;;;5030268;28;20079;-51
2021/11/12 12:14:25;;;;;;;54.22;25.38;;;3.30;99.90;;;;;;5030577;28;20075;-55
2021/11/12 12:19:58;;;;;;;43.15;22.60;;;3.40;99.90;;;;;;5032013;28;20040;-50
2021/11/12 12:34:37;;;;;;;61.25;25.60;;;3.30;99.90;;;;;;5027205;28;20018;-51
2021/11/12 13:25:46;;;;;;;68.90;29.50;;;3.40;99.90;;;;;;5012396;28;20109;-48
2021/11/12 13:28:23;;;;;;;80.00;31.42;;;3.40;99.90;;;;;;5011503;28;20529;-51
2021/11/12 13:30:53;;;;;;;61.63;28.15;;;3.40;99.90;;;;;;5011821;28;20022;-49
2021/11/12 13:33:28;;;;;;;70.35;30.95;;;3.40;99.90;;;;;;5011398;28;20018;-48
2021/11/12 13:35:55;;;;;;;79.82;32.90;;;3.50;99.90;;;;;;5011850;28;20022;-52
2021/11/12 13:38:20;;;;;;;68.63;32.50;;;3.50;99.90;;;;;;5010201;28;20479;-50
2021/11/12 13:40:47;;;;;;;72.45;31.13;;;3.60;99.90;;;;;;5011351;28;20097;-50
2021/11/12 13:43:23;;;;;;;79.78;31.83;;;3.40;99.90;;;;;;5011443;28;20026;-51
2021/11/12 13:45:55;;;;;;;68.15;30.77;;;3.30;99.90;;;;;;5011358;28;20025;-49
2021/11/12 13:48:21;;;;;;;89.18;34.35;;;3.40;99.90;;;;;;5010983;28;20026;-48
2021/11/12 13:51:02;;;;;;;76.88;31.85;;;3.40;99.90;;;;;;5010851;28;20541;-50
2021/11/12 13:53:30;;;;;;;84.22;34.80;;;3.30;99.90;;;;;;5011439;28;20787;-48
2021/11/12 13:55:58;;;;;;;78.78;32.22;;;3.30;99.90;;;;;;5011011;28;20036;-49
2021/11/12 13:58:26;;;;;;;87.43;34.38;;;3.30;99.90;;;;;;5010751;28;20117;-50
2021/11/12 14:00:55;;;;;;;78.00;32.95;;;3.20;99.90;;;;;;5031931;23;20028;-51
2021/11/12 14:03:35;;;;;;;86.68;34.13;;;3.30;99.90;;;;;;5026738;28;20022;-49
2021/11/12 14:06:04;;;;;;;89.95;33.38;;;3.10;99.90;;;;;;5018598;28;20017;-46
2021/11/12 14:08:35;;;;;;;83.68;34.08;;;3.20;99.90;;;;;;5030543;28;20029;-53
2021/11/12 14:11:04;;;;;;;79.82;33.00;;;3.20;99.90;;;;;;5021040;28;20414;-51
2021/11/12 14:13:41;;;;;;;79.72;33.22;;;3.20;99.90;;;;;;5011169;28;20545;-51
2021/11/12 14:16:29;;;;;;;71.53;32.80;;;3.30;99.90;;;;;;5009272;28;20476;-52
2021/11/12 14:19:26;;;;;;;84.22;31.83;;;3.30;99.90;;;;;;4991559;28;20049;-58
2021/11/12 14:21:50;;;;;;;81.38;33.75;;;3.50;99.90;;;;;;4991214;28;20015;-59
2021/11/12 14:27:25;;;;;;;79.65;32.75;;;3.70;99.90;;;;;;4997382;28;20028;-52
2021/11/12 14:33:04;;;;;;;101.47;36.40;;;3.70;99.90;;;;;;5010919;28;20410;-54
2021/11/12 14:38:20;;;;;;;115.97;39.40;;;3.40;99.90;;;;;;5010459;28;20017;-57
2021/11/12 14:52:24;;;;;;;130.45;41.10;;;3.40;99.90;;;;;;5013531;28;20067;-54
2021/11/12 14:54:41;;;;;;;111.07;41.05;;;3.40;99.90;;;;;;5007890;28;20097;-55
2021/11/12 14:57:25;;;;;;;114.22;38.40;;;3.30;99.90;;;;;;5017742;28;20100;-56
2021/11/12 14:59:59;;;;;;;113.78;41.53;;;3.30;99.90;;;;;;5029317;28;20431;-51
2021/11/12 15:02:28;;;;;;;117.88;39.60;;;3.30;99.90;;;;;;5028644;28;20045;-53
2021/11/12 15:04:55;;;;;;;119.90;39.40;;;3.50;99.90;;;;;;5029331;28;20104;-53
2021/11/12 15:07:25;;;;;;;117.72;38.22;;;3.50;99.90;;;;;;5026010;28;20026;-53
2021/11/12 15:09:52;;;;;;;112.03;39.95;;;3.60;99.90;;;;;;5029172;28;20029;-55
2021/11/12 15:12:17;;;;;;;116.10;40.53;;;3.60;99.90;;;;;;5029070;28;20530;-53
2021/11/12 15:14:48;;;;;;;112.00;42.55;;;3.60;99.90;;;;;;5030440;28;20036;-54
2021/11/12 15:17:14;;;;;;;105.22;39.58;;;3.50;99.90;;;;;;5028262;28;20052;-53
2021/11/12 15:19:42;;;;;;;119.88;40.35;;;3.60;99.90;;;;;;5028796;28;20030;-52
2021/11/12 15:32:34;;;;;;;126.38;42.42;;;3.80;99.90;;;;;;5030324;28;20065;-53
2021/11/12 15:37:43;;;;;;;116.65;43.40;;;3.90;99.90;;;;;;5029459;28;20032;-53
2021/11/12 15:40:22;;;;;;;135.35;41.25;;;3.90;99.90;;;;;;5026963;28;20029;-52
2021/11/12 15:48:12;;;;;;;129.15;42.28;;;4.10;99.90;;;;;;5032573;28;19920;-52
2021/11/12 16:07:21;;;;;;;136.52;43.70;;;3.70;99.90;;;;;;5032740;28;20446;-50
2021/11/12 16:09:42;;;;;;;118.75;40.92;;;3.70;99.90;;;;;;5030945;28;20088;-54
2021/11/12 16:12:31;;;;;;;116.40;39.38;;;3.80;99.90;;;;;;5031726;28;20032;-51
2021/11/12 16:17:48;;;;;;;112.95;38.25;;;3.70;99.90;;;;;;5032585;28;20032;-52
2021/11/12 16:25:36;;;;;;;104.07;35.97;;;3.70;99.90;;;;;;5038356;28;20021;-52
2021/11/12 16:28:03;;;;;;;101.97;34.42;;;3.70;99.90;;;;;;5030662;28;20025;-53
2021/11/12 16:30:32;;;;;;;99.05;35.30;;;3.70;99.90;;;;;;5032208;28;20494;-51
2021/11/12 16:33:00;;;;;;;98.75;36.17;;;3.80;99.90;;;;;;5023831;28;20474;-46
2021/11/12 16:35:27;;;;;;;92.65;35.42;;;3.60;99.90;;;;;;5013323;28;20026;-52
2021/11/12 16:38:04;;;;;;;82.28;31.92;;;3.70;99.90;;;;;;5011276;28;20030;-51
2021/11/12 16:50:31;;;;;;;82.78;32.05;;;3.40;99.90;;;;;;5025803;28;20029;-47
2021/11/12 16:53:07;;;;;;;84.88;33.17;;;3.50;99.90;;;;;;5021932;28;20006;-49
2021/11/12 17:05:54;;;;;;;90.18;34.33;;;3.70;99.90;;;;;;4992941;28;20113;-48
2021/11/12 17:08:36;;;;;;;86.95;32.45;;;3.70;99.90;;;;;;5012534;28;20077;-50
2021/11/12 17:16:29;;;;;;;85.35;33.00;;;3.60;99.90;;;;;;5012228;28;20490;-53
2021/11/12 17:19:09;;;;;;;87.60;30.75;;;3.60;99.90;;;;;;5012333;28;20024;-47
2021/11/12 17:22:13;;;;;;;75.60;31.50;;;3.80;99.90;;;;;;5024111;28;20466;-47
2021/11/12 17:46:39;;;;;;;92.38;33.42;;;3.80;99.90;;;;;;5010363;28;20026;-46
2021/11/12 17:49:38;;;;;;;96.57;34.20;;;3.80;99.90;;;;;;5012680;28;20029;-54
2021/11/12 18:16:27;;;;;;;100.60;38.55;;;3.60;99.90;;;;;;5019442;28;20045;-54
2021/11/12 18:21:54;;;;;;;92.40;36.95;;;3.40;99.90;;;;;;5016151;28;20021;-52
2021/11/12 21:45:53;;;;;;;63.65;26.95;;;3.60;99.90;;;;;;5011699;28;20021;-48
2021/11/12 21:48:20;;;;;;;64.18;27.17;;;3.70;99.90;;;;;;5010632;28;20014;-46
2021/11/12 21:50:47;;;;;;;60.60;26.73;;;3.60;99.90;;;;;;5011558;28;20018;-51
2021/11/12 21:53:13;;;;;;;59.20;26.67;;;3.80;99.90;;;;;;5022606;28;20523;-50
2021/11/12 21:55:38;;;;;;;64.70;27.38;;;3.80;99.90;;;;;;5010394;28;20114;-49
2021/11/12 21:58:04;;;;;;;63.97;26.42;;;3.80;99.90;;;;;;5011438;28;20034;-51
2021/11/12 22:00:31;;;;;;;62.92;27.02;;;3.80;99.90;;;;;;5023657;28;20029;-52
2021/11/12 22:02:57;;;;;;;57.00;25.52;;;3.80;99.90;;;;;;5011550;28;20068;-50
2021/11/12 22:05:23;;;;;;;56.92;26.08;;;3.80;99.90;;;;;;5024004;28;20025;-49
2021/11/12 22:07:49;;;;;;;70.10;28.70;;;3.70;99.90;;;;;;5017625;28;20728;-52
2021/11/12 22:10:15;;;;;;;73.65;30.38;;;3.80;99.90;;;;;;5011489;28;20028;-49
2021/11/12 22:12:40;;;;;;;68.80;28.10;;;3.80;99.90;;;;;;5015280;28;20513;-45
2021/11/12 22:15:07;;;;;;;64.90;27.40;;;3.60;99.90;;;;;;5012302;28;20720;-46
2021/11/12 22:17:32;;;;;;;70.00;26.60;;;3.50;99.90;;;;;;5013956;28;20014;-48
2021/11/12 22:19:59;;;;;;;68.50;27.38;;;3.60;99.90;;;;;;5014058;28;20043;-46
2021/11/12 22:22:25;;;;;;;75.70;27.20;;;3.50;99.90;;;;;;5011706;28;20049;-50
2021/11/12 22:24:50;;;;;;;66.35;27.10;;;3.40;99.90;;;;;;5011202;28;20052;-49
2021/11/12 22:27:16;;;;;;;69.00;28.98;;;3.40;99.90;;;;;;5013575;28;20037;-52
2021/11/12 22:29:42;;;;;;;68.70;29.02;;;3.50;99.90;;;;;;5026249;28;20455;-52
2021/11/12 22:32:08;;;;;;;76.85;30.85;;;3.50;99.90;;;;;;5028340;28;20470;-50
2021/11/12 22:34:34;;;;;;;78.25;30.23;;;3.70;99.90;;;;;;5030401;28;20028;-51
2021/11/12 22:36:59;;;;;;;70.05;27.80;;;3.70;99.90;;;;;;5006972;28;20022;-52
2021/11/12 22:39:26;;;;;;;73.78;29.88;;;3.80;99.90;;;;;;5010992;28;20028;-47
2021/11/12 22:41:52;;;;;;;65.95;27.38;;;3.80;99.90;;;;;;5013256;28;20486;-50
2021/11/12 22:44:18;;;;;;;75.50;30.20;;;3.80;99.90;;;;;;5012187;28;20084;-51